Millington, Maryland
Current Conditions -  °F | °C
As of 10:58 AM on Friday 24 Oct 2014 (Local Time) from KDOV Reporting Station
Few Clouds Few Clouds  
Wind Chill: 61°   Ceiling: Unl
Heat Index: 61°   Visibility: 10mi
Dew Point: 47°   Wind: 18mph
Humidity: 59%   Direction: 310°NW
Pressure: 29.87"   Gusts: 25mph
Location:  39.26°N, 75.84°W
Report Text: KDOV 241458Z AUTO 31016G22KT 10SM FEW038 16/08 A2987 RMK AO2 SLP118 T01630083 50004
Loading
Personal Weather Stations






























Interactive Weather Map
Tropical Storm Tracking
New forecast layout! Learn more

10-Day Weather Forecast

Advertisements
Track Severe Weather on mobile